Time;durP1;ratioP1;P1;durP2;ratioP2;P2;SDS_P1;SDS_P2;PMS_P1;PMS_P2;Temp;Humidity;BMP_temperature;BMP_pressure;BME280_temperature;BME280_humidity;BME280_pressure;Samples;Min_cycle;Max_cycle;Signal;HPM_P1;HPM_P2
2023/01/28 00:00:54;;;;;;;6.57;2.80;;;;;;;3.78;67.46;101751.88;5062526;28;20052;-45
2023/01/28 00:03:21;;;;;;;9.05;3.65;;;;;;;3.78;67.63;101746.75;5060220;28;20129;-44
2023/01/28 00:05:49;;;;;;;9.77;3.30;;;;;;;3.78;67.75;101745.88;5056982;28;20056;-45
2023/01/28 00:08:16;;;;;;;7.03;3.22;;;;;;;3.77;67.56;101739.88;5060806;28;20136;-45
2023/01/28 00:10:43;;;;;;;9.02;3.13;;;;;;;3.77;67.26;101742.44;5059795;28;20036;-45
2023/01/28 00:13:13;;;;;;;9.27;3.85;;;;;;;3.78;67.83;101746.75;5053199;28;20152;-45
2023/01/28 00:15:40;;;;;;;9.45;3.45;;;;;;;3.78;67.69;101746.75;5060606;28;20044;-45
2023/01/28 00:18:07;;;;;;;7.78;4.45;;;;;;;3.78;67.15;101745.88;5058958;28;20660;-44
2023/01/28 00:20:35;;;;;;;9.18;3.40;;;;;;;3.78;67.24;101744.19;5060918;28;20441;-44
2023/01/28 00:23:02;;;;;;;11.82;3.72;;;;;;;3.79;67.50;101737.41;5053758;28;20040;-44
2023/01/28 00:25:30;;;;;;;10.70;3.47;;;;;;;3.80;67.39;101746.84;5058739;28;20040;-44
2023/01/28 00:27:58;;;;;;;15.48;4.03;;;;;;;3.79;67.82;101735.72;5060770;28;20092;-45
2023/01/28 00:30:25;;;;;;;9.35;4.07;;;;;;;3.80;67.44;101734.91;5059320;28;20455;-44
2023/01/28 00:32:54;;;;;;;9.82;4.22;;;;;;;3.81;67.28;101731.53;5058733;28;20053;-45
2023/01/28 00:35:22;;;;;;;9.95;4.38;;;;;;;3.80;67.00;101729.78;5059428;28;20101;-44
2023/01/28 00:37:49;;;;;;;9.88;4.53;;;;;;;3.80;67.05;101732.34;5057340;28;20044;-47
2023/01/28 00:40:16;;;;;;;12.93;4.38;;;;;;;3.81;68.21;101726.41;5060098;28;20040;-46
2023/01/28 00:42:43;;;;;;;13.82;4.65;;;;;;;3.81;67.31;101741.78;5058067;28;20342;-44
2023/01/28 00:45:10;;;;;;;10.15;3.65;;;;;;;3.80;67.43;101737.47;5060926;28;20127;-46
2023/01/28 00:47:37;;;;;;;12.48;4.57;;;;;;;3.81;67.81;101733.22;5058463;28;20044;-44
2023/01/28 00:50:04;;;;;;;12.48;4.40;;;;;;;3.80;67.65;101724.66;5062529;28;20045;-44
2023/01/28 00:52:31;;;;;;;11.77;5.13;;;;;;;3.81;67.82;101726.41;5057378;28;20053;-46
2023/01/28 00:54:59;;;;;;;12.57;4.63;;;;;;;3.80;67.85;101719.53;5061606;28;20052;-45
2023/01/28 00:57:26;;;;;;;10.57;4.70;;;;;;;3.80;67.46;101719.53;5060181;28;20067;-44
2023/01/28 00:59:53;;;;;;;13.35;5.28;;;;;;;3.79;67.49;101712.66;5059213;28;20123;-45
2023/01/28 01:02:20;;;;;;;9.40;4.75;;;;;;;3.78;67.69;101708.31;5034967;28;20463;-45
2023/01/28 01:05:03;;;;;;;11.68;5.28;;;;;;;3.79;68.11;101697.28;5051585;28;20075;-44
2023/01/28 01:07:40;;;;;;;13.48;5.93;;;;;;;3.80;68.03;101704.16;5052401;28;20084;-45
2023/01/28 01:10:11;;;;;;;12.75;5.18;;;;;;;3.78;67.92;101695.50;5057487;28;20052;-44
2023/01/28 01:12:38;;;;;;;12.07;5.00;;;;;;;3.79;68.00;101707.53;5055203;28;20051;-44
2023/01/28 01:15:07;;;;;;;11.77;4.38;;;;;;;3.79;67.92;101704.97;5059555;28;20317;-44
2023/01/28 01:17:36;;;;;;;10.27;4.10;;;;;;;3.79;67.45;101704.97;5059740;28;20156;-45
2023/01/28 01:20:04;;;;;;;9.55;4.75;;;;;;;3.80;67.80;101688.78;5062657;28;20124;-46
2023/01/28 01:22:33;;;;;;;8.73;4.35;;;;;;;3.81;67.69;101698.22;5061997;28;20049;-43
2023/01/28 01:25:00;;;;;;;8.10;3.60;;;;;;;3.82;67.62;101687.16;5062268;28;20045;-43
2023/01/28 01:27:27;;;;;;;7.50;3.85;;;;;;;3.85;67.97;101696.72;5059327;28;20045;-44
2023/01/28 01:29:53;;;;;;;8.88;5.30;;;;;;;3.89;67.40;101697.72;5062385;28;20623;-44
2023/01/28 01:32:21;;;;;;;11.45;4.43;;;;;;;3.90;67.38;101689.22;5062884;28;20040;-44
2023/01/28 01:34:48;;;;;;;9.88;3.95;;;;;;;3.91;67.49;101686.75;5058378;28;20040;-43
2023/01/28 01:37:15;;;;;;;10.30;5.03;;;;;;;3.92;67.67;101687.66;5056663;28;20068;-43
2023/01/28 01:39:41;;;;;;;9.40;4.43;;;;;;;3.91;67.47;101686.75;5056531;28;20068;-44
2023/01/28 01:42:11;;;;;;;14.00;5.53;;;;;;;3.91;67.70;101686.75;5057369;28;20514;-44
2023/01/28 01:47:58;;;;;;;10.10;4.07;;;;;;;3.86;67.05;101694.19;5046302;28;21528;-44
2023/01/28 01:50:30;;;;;;;;;;;;;;;3.82;67.65;101699.09;5017932;28;20068;-44
2023/01/28 01:53:02;;;;;;;13.23;4.50;;;;;;;3.85;67.35;101702.69;5018506;28;20015;-44
2023/01/28 01:55:33;;;;;;;6.05;3.10;;;;;;;3.84;67.50;101695.81;5019113;28;20547;-45
2023/01/28 01:58:09;;;;;;;10.82;4.57;;;;;;;3.85;67.06;101701.84;5018117;28;20539;-44
2023/01/28 02:00:36;;;;;;;9.30;4.65;;;;;;;3.83;67.50;101696.63;5019269;28;20065;-45
2023/01/28 02:03:03;;;;;;;11.13;4.55;;;;;;;3.82;67.37;101702.53;5020166;28;20069;-48
2023/01/28 02:05:30;;;;;;;12.75;4.35;;;;;;;3.83;67.81;101708.56;5019112;28;20677;-44
2023/01/28 02:08:19;;;;;;;16.65;5.80;;;;;;;3.83;67.87;101706.88;5020231;28;20042;-43
2023/01/28 02:10:48;;;;;;;14.32;5.07;;;;;;;3.82;67.54;101712.78;5018164;28;20072;-43
2023/01/28 02:13:16;;;;;;;9.55;4.13;;;;;;;3.84;67.99;101713.75;5018891;28;20073;-46
2023/01/28 02:15:44;;;;;;;14.25;5.68;;;;;;;3.82;67.13;101711.94;5017558;28;20561;-45
2023/01/28 02:18:11;;;;;;;12.50;5.38;;;;;;;3.82;67.57;101711.94;5020185;28;20559;-45
2023/01/28 02:21:17;;;;;;;12.70;5.65;;;;;;;3.80;68.05;101719.53;5020900;28;20144;-45
2023/01/28 02:29:37;;;;;;;12.10;4.90;;;;;;;3.77;68.36;101709.13;5012278;28;20415;-44
2023/01/28 02:32:13;;;;;;;12.57;6.03;;;;;;;3.75;68.00;101708.13;4990190;28;20136;-46
2023/01/28 02:34:46;;;;;;;11.85;6.78;;;;;;;3.74;68.13;101714.06;4989886;28;20201;-43
2023/01/28 02:39:56;;;;;;;12.48;4.63;;;;;;;3.71;68.15;101712.25;5031390;28;20445;-43
2023/01/28 02:42:28;;;;;;;11.45;4.75;;;;;;;3.72;68.14;101713.13;5017728;28;20052;-44
2023/01/28 02:44:55;;;;;;;7.72;4.03;;;;;;;3.71;67.71;101716.47;5018618;28;20045;-44
2023/01/28 02:50:12;;;;;;;11.05;5.18;;;;;;;3.70;67.99;101717.28;5026319;28;20084;-44
2023/01/28 02:55:45;;;;;;;10.40;6.18;;;;;;;3.69;68.04;101715.53;5044094;27;21132;-44
2023/01/28 03:03:54;;;;;;;16.15;8.90;;;;;;;4.02;67.02;101710.38;5106224;27;20399;-43
2023/01/28 03:06:24;;;;;;;15.95;6.50;;;;;;;3.85;68.05;101714.66;5057719;28;20059;-44
2023/01/28 03:37:28;;;;;;;16.60;7.38;;;;;;;3.76;69.08;101685.97;5057082;28;20045;-44
2023/01/28 03:39:57;;;;;;;15.00;8.07;;;;;;;3.77;68.78;101688.59;5057233;28;20048;-44
2023/01/28 03:42:23;;;;;;;19.13;8.43;;;;;;;3.77;69.28;101688.59;5056072;28;20048;-45
2023/01/28 03:44:54;;;;;;;21.42;9.35;;;;;;;3.78;69.43;101680.09;5060174;28;20044;-46
2023/01/28 03:47:23;;;;;;;17.08;9.50;;;;;;;3.78;68.73;101685.25;5059339;28;20056;-44
2023/01/28 03:49:53;;;;;;;19.42;8.13;;;;;;;3.78;68.68;101680.09;5049872;28;20196;-43
2023/01/28 03:52:23;;;;;;;19.73;8.82;;;;;;;3.78;69.08;101674.97;5056806;28;20098;-44
2023/01/28 03:54:51;;;;;;;20.08;10.10;;;;;;;3.78;69.71;101669.84;5055952;28;20718;-50
2023/01/28 03:57:21;;;;;;;20.77;10.32;;;;;;;3.77;69.63;101668.09;5046818;28;20485;-43
2023/01/28 03:59:49;;;;;;;19.67;10.23;;;;;;;3.77;69.34;101673.22;5040750;28;20083;-45
2023/01/28 04:02:16;;;;;;;19.95;7.95;;;;;;;3.76;69.82;101681.72;5039078;28;20067;-46
2023/01/28 04:04:43;;;;;;;19.58;7.72;;;;;;;3.74;69.83;101678.19;5038432;28;20547;-44
2023/01/28 04:07:13;;;;;;;22.27;11.45;;;;;;;3.72;69.64;101679.81;5034999;28;20077;-46
2023/01/28 04:09:40;;;;;;;24.15;10.98;;;;;;;3.71;69.60;101672.91;5040406;28;20537;-45
2023/01/28 04:12:07;;;;;;;22.35;9.63;;;;;;;3.71;69.84;101671.22;5038127;28;20049;-46
2023/01/28 04:14:34;;;;;;;24.48;11.13;;;;;;;3.71;69.43;101683.16;5049596;28;20057;-44
2023/01/28 04:17:01;;;;;;;18.30;8.77;;;;;;;3.71;69.40;101685.72;5030918;28;20049;-44
2023/01/28 04:19:27;;;;;;;23.33;10.77;;;;;;;3.70;69.42;101686.53;5035760;28;20073;-45
2023/01/28 04:21:54;;;;;;;29.60;12.48;;;;;;;3.70;69.92;101681.41;5040333;28;20065;-45
2023/01/28 04:24:22;;;;;;;23.70;11.23;;;;;;;3.68;69.69;101683.88;5024223;28;20088;-45
2023/01/28 04:26:49;;;;;;;26.08;8.30;;;;;;;3.70;70.15;101695.09;5022721;28;20041;-44
2023/01/28 04:29:15;;;;;;;22.30;8.88;;;;;;;3.69;69.81;101693.31;5026032;28;20041;-44
2023/01/28 04:31:42;;;;;;;24.13;11.43;;;;;;;3.70;70.15;101686.53;5024519;28;20079;-44
2023/01/28 04:34:09;;;;;;;25.13;11.48;;;;;;;3.72;69.67;101688.38;5023900;28;20053;-45
2023/01/28 04:36:36;;;;;;;22.70;10.40;;;;;;;3.72;70.25;101684.94;5023436;28;20064;-44
2023/01/28 04:39:02;;;;;;;20.63;8.23;;;;;;;3.74;70.25;101691.00;5026521;28;20099;-44
2023/01/28 04:41:29;;;;;;;23.95;9.15;;;;;;;3.74;70.15;101693.56;5023937;28;20106;-45
2023/01/28 04:43:56;;;;;;;24.17;11.38;;;;;;;3.76;70.02;101702.22;5026931;28;20041;-44
2023/01/28 04:46:22;;;;;;;24.05;9.18;;;;;;;3.77;69.80;101698.88;5023718;28;20048;-44
2023/01/28 04:48:49;;;;;;;23.08;10.55;;;;;;;3.77;70.07;101688.59;5025844;28;20501;-43
2023/01/28 04:51:16;;;;;;;25.50;9.77;;;;;;;3.79;70.89;101692.16;5018122;28;20092;-46
2023/01/28 04:53:42;;;;;;;22.73;8.43;;;;;;;3.78;70.04;101698.06;5027050;28;20072;-44
2023/01/28 04:56:09;;;;;;;21.30;10.52;;;;;;;3.79;70.33;101696.38;5017648;28;20046;-45
2023/01/28 04:58:36;;;;;;;24.48;10.48;;;;;;;3.79;69.39;101687.03;5026165;28;20141;-44
2023/01/28 05:01:02;;;;;;;21.17;9.95;;;;;;;3.80;70.34;101696.47;5023548;28;20048;-45
2023/01/28 05:03:29;;;;;;;27.30;10.82;;;;;;;3.81;70.08;101687.06;5025820;28;20053;-44
2023/01/28 05:05:56;;;;;;;24.35;9.20;;;;;;;3.80;70.71;101683.66;5022495;28;20298;-45
2023/01/28 05:08:22;;;;;;;25.48;10.77;;;;;;;3.80;70.49;101693.00;5025887;28;20049;-44
2023/01/28 05:10:49;;;;;;;21.90;8.43;;;;;;;3.80;70.14;101693.91;5019435;28;20120;-46
2023/01/28 05:13:16;;;;;;;23.60;8.50;;;;;;;3.79;70.49;101694.72;5025914;28;20080;-44
2023/01/28 05:15:42;;;;;;;22.60;10.88;;;;;;;3.79;70.33;101692.16;5019130;28;20069;-44
2023/01/28 05:18:09;;;;;;;23.38;10.68;;;;;;;3.80;70.46;101690.44;5023021;28;20051;-45
2023/01/28 05:20:35;;;;;;;21.70;9.98;;;;;;;3.80;70.43;101687.88;5025201;28;20049;-45
2023/01/28 05:23:02;;;;;;;20.60;8.10;;;;;;;3.79;70.18;101689.59;5039096;28;20045;-48
2023/01/28 05:25:29;;;;;;;22.65;8.02;;;;;;;3.78;70.58;101690.38;5043878;28;20056;-44
2023/01/28 05:27:56;;;;;;;24.27;11.02;;;;;;;3.79;70.53;101692.16;5042106;28;20583;-44
2023/01/28 05:30:22;;;;;;;22.65;9.10;;;;;;;3.79;70.73;101687.03;5043367;28;20045;-45
2023/01/28 05:32:53;;;;;;;21.85;10.45;;;;;;;3.80;70.36;101687.88;5044111;28;20049;-44
2023/01/28 05:35:20;;;;;;;21.50;8.25;;;;;;;3.79;69.79;101687.03;5024001;28;20115;-44
2023/01/28 05:37:47;;;;;;;22.45;10.00;;;;;;;3.79;69.80;101686.13;5018927;28;20075;-44
2023/01/28 05:40:14;;;;;;;20.85;7.63;;;;;;;3.79;70.23;101687.03;5024087;28;20041;-43
2023/01/28 05:42:41;;;;;;;27.13;8.57;;;;;;;3.79;70.72;101681.91;5021260;28;20848;-45
2023/01/28 05:45:08;;;;;;;26.92;9.90;;;;;;;3.79;70.23;101697.28;5022373;28;20068;-43
2023/01/28 05:47:35;;;;;;;22.45;10.55;;;;;;;3.79;70.36;101699.84;5044856;28;20057;-44
2023/01/28 05:50:02;;;;;;;19.80;9.82;;;;;;;3.78;69.97;101700.63;5046854;28;20093;-44
2023/01/28 05:52:28;;;;;;;23.42;9.75;;;;;;;3.77;69.99;101698.88;5044323;28;20060;-44
2023/01/28 05:54:55;;;;;;;27.05;9.68;;;;;;;3.78;70.27;101697.19;5044018;28;20106;-43
2023/01/28 05:57:22;;;;;;;21.88;8.15;;;;;;;3.77;70.38;101701.44;5044665;28;20087;-45
2023/01/28 05:59:48;;;;;;;19.08;8.43;;;;;;;3.77;70.13;101704.00;5045172;28;20049;-45
2023/01/28 06:02:15;;;;;;;24.65;9.30;;;;;;;3.76;70.54;101702.22;5044007;28;20048;-44
2023/01/28 06:04:42;;;;;;;19.38;9.32;;;;;;;3.75;70.21;101700.44;5046694;28;20129;-43
2023/01/28 06:07:08;;;;;;;22.67;9.13;;;;;;;3.73;70.39;101699.50;5045372;28;20045;-45
2023/01/28 06:09:35;;;;;;;19.65;6.95;;;;;;;3.73;70.64;101696.94;5029745;28;20121;-44
2023/01/28 06:12:02;;;;;;;20.05;7.07;;;;;;;3.70;70.13;101691.66;5046009;28;20049;-45
2023/01/28 06:14:28;;;;;;;20.35;10.02;;;;;;;3.70;70.78;101691.66;5046444;28;20048;-44
2023/01/28 06:16:55;;;;;;;23.92;10.23;;;;;;;3.68;70.88;101694.13;5047399;28;20049;-44
2023/01/28 06:19:22;;;;;;;18.30;7.40;;;;;;;3.69;70.68;101700.16;5047257;28;20468;-45
2023/01/28 06:21:48;;;;;;;20.15;7.65;;;;;;;3.70;70.42;101701.91;5046904;28;20128;-44
2023/01/28 06:24:15;;;;;;;20.98;9.23;;;;;;;3.71;70.30;101703.66;5048395;28;20041;-44
2023/01/28 06:26:42;;;;;;;20.17;8.63;;;;;;;3.71;70.71;101708.78;5047265;28;20076;-44
2023/01/28 06:29:08;;;;;;;19.52;9.35;;;;;;;3.70;70.84;101709.59;5049224;28;20045;-44
2023/01/28 06:31:35;;;;;;;18.50;7.57;;;;;;;3.68;70.83;101698.41;5047616;28;20083;-44
2023/01/28 06:34:02;;;;;;;19.08;7.90;;;;;;;3.68;71.13;101699.25;5046449;28;20077;-47
2023/01/28 06:36:28;;;;;;;21.85;9.45;;;;;;;3.68;70.37;101693.28;5045795;28;20053;-46
2023/01/28 06:38:55;;;;;;;24.17;8.43;;;;;;;3.69;71.04;101695.03;5041562;28;20179;-44
2023/01/28 06:41:22;;;;;;;27.88;10.75;;;;;;;3.70;70.52;101696.78;5046785;28;20138;-44
2023/01/28 06:43:48;;;;;;;22.92;7.70;;;;;;;3.69;70.47;101695.03;5043558;28;20060;-45
2023/01/28 06:46:15;;;;;;;21.48;9.07;;;;;;;3.68;70.51;101693.28;5044349;28;20045;-44
2023/01/28 06:48:42;;;;;;;25.45;8.98;;;;;;;3.68;71.21;101690.72;5042836;28;20048;-44
2023/01/28 06:51:08;;;;;;;23.75;7.72;;;;;;;3.68;70.67;101698.41;5042233;28;20072;-44
2023/01/28 06:53:35;;;;;;;20.90;8.88;;;;;;;3.68;71.16;101698.41;5041994;28;20053;-45
2023/01/28 06:56:02;;;;;;;22.52;7.88;;;;;;;3.69;70.30;101695.03;5041540;28;20111;-44
2023/01/28 06:58:28;;;;;;;25.77;7.97;;;;;;;3.69;70.90;101695.03;5040781;28;20458;-45
2023/01/28 07:00:55;;;;;;;23.45;7.90;;;;;;;3.68;70.69;101693.28;5043420;28;20088;-45
2023/01/28 07:03:22;;;;;;;23.35;8.00;;;;;;;3.67;70.55;101691.50;5042976;28;20075;-44
2023/01/28 07:05:48;;;;;;;20.13;7.60;;;;;;;3.68;70.95;101695.84;5042937;28;20144;-43
2023/01/28 07:08:15;;;;;;;22.35;7.95;;;;;;;3.70;70.18;101707.03;5043701;28;20041;-45
2023/01/28 07:10:43;;;;;;;21.10;8.30;;;;;;;3.70;70.98;101696.78;5043238;28;20145;-43
2023/01/28 07:13:10;;;;;;;21.98;7.95;;;;;;;3.70;70.55;101694.22;5028718;28;20091;-46
2023/01/28 07:15:37;;;;;;;21.83;11.98;;;;;;;3.72;70.90;101697.75;5044262;28;20667;-46
2023/01/28 07:18:04;;;;;;;21.00;7.95;;;;;;;3.71;70.46;101703.66;5047612;28;20719;-45
2023/01/28 07:20:30;;;;;;;20.05;8.75;;;;;;;3.70;70.96;101704.47;5044015;28;20057;-44
2023/01/28 07:22:57;;;;;;;24.45;8.23;;;;;;;3.71;70.91;101711.34;5046983;28;20037;-44
2023/01/28 07:25:24;;;;;;;19.40;8.95;;;;;;;3.69;71.21;101706.13;5038900;28;20301;-45
2023/01/28 07:27:52;;;;;;;22.60;7.85;;;;;;;3.71;70.94;101709.69;5043151;28;20091;-44
2023/01/28 07:30:19;;;;;;;20.13;8.73;;;;;;;3.71;70.97;101706.22;5041127;28;20145;-44
2023/01/28 07:32:46;;;;;;;20.73;9.40;;;;;;;3.71;71.12;101703.66;5036666;28;20041;-45
2023/01/28 07:35:13;;;;;;;20.92;9.65;;;;;;;3.70;70.86;101699.34;5045077;28;20071;-43
2023/01/28 07:37:39;;;;;;;23.80;9.38;;;;;;;3.70;70.70;101694.22;5019799;28;20057;-45
2023/01/28 07:40:08;;;;;;;16.77;8.05;;;;;;;3.70;70.94;101692.53;5043246;28;20077;-46
2023/01/28 07:42:35;;;;;;;22.13;9.63;;;;;;;3.68;70.62;101693.28;5038671;28;20053;-45
2023/01/28 07:45:01;;;;;;;19.45;8.48;;;;;;;3.67;70.98;101691.50;5041709;28;20923;-45
2023/01/28 07:47:28;;;;;;;18.25;7.55;;;;;;;3.69;70.73;101701.00;5037179;28;20127;-45
2023/01/28 07:49:54;;;;;;;23.42;10.00;;;;;;;3.69;70.65;101705.28;5037275;28;20107;-44
2023/01/28 07:52:21;;;;;;;22.17;8.50;;;;;;;3.68;70.58;101706.09;5041224;28;20638;-47
2023/01/28 07:54:48;;;;;;;23.55;9.27;;;;;;;3.69;70.51;101707.84;5033161;28;20169;-47
2023/01/28 07:57:21;;;;;;;23.67;8.52;;;;;;;3.69;70.41;101712.97;5040092;28;20488;-45
2023/01/28 07:59:49;;;;;;;40.92;17.77;;;;;;;3.71;70.48;101709.69;5032524;28;20054;-45
2023/01/28 08:02:17;;;;;;;66.13;24.52;;;;;;;3.72;70.86;101716.56;5038981;28;20373;-45
2023/01/28 08:04:45;;;;;;;57.28;30.67;;;;;;;3.73;70.96;101712.31;5015116;28;20049;-44
2023/01/28 08:07:12;;;;;;;30.98;14.27;;;;;;;3.74;70.49;101703.81;5037784;28;20095;-44
2023/01/28 08:09:38;;;;;;;26.85;11.30;;;;;;;3.73;70.81;101708.09;5040883;28;20052;-44
2023/01/28 08:12:05;;;;;;;19.33;7.90;;;;;;;3.76;70.29;101717.63;5043116;28;20628;-46
2023/01/28 08:14:32;;;;;;;23.73;9.73;;;;;;;3.76;70.36;101717.63;5037737;28;20088;-44
2023/01/28 08:16:58;;;;;;;23.83;8.65;;;;;;;3.77;71.03;101724.50;5037546;28;20468;-45
2023/01/28 08:19:25;;;;;;;26.23;10.48;;;;;;;3.77;70.43;101729.63;5040239;28;20052;-44
2023/01/28 08:21:52;;;;;;;30.55;12.73;;;;;;;3.78;70.82;101744.19;5033572;28;20065;-45
2023/01/28 08:24:18;;;;;;;50.03;16.75;;;;;;;3.77;71.15;101755.25;5037080;28;20143;-46
2023/01/28 08:26:47;;;;;;;65.80;19.73;;;;;;;3.80;70.49;101760.53;5032012;28;20064;-44
2023/01/28 08:29:13;;;;;;;49.13;15.60;;;;;;;3.80;70.44;101749.41;5031658;28;20076;-46
2023/01/28 08:31:40;;;;;;;87.72;27.58;;;;;;;3.80;71.43;101734.91;5038676;28;20601;-44
2023/01/28 08:34:07;;;;;;;60.22;19.58;;;;;;;3.81;71.07;101726.41;5040598;28;20592;-44
2023/01/28 08:36:33;;;;;;;53.55;17.85;;;;;;;3.82;70.67;101733.28;5040809;28;20053;-44
2023/01/28 08:39:00;;;;;;;28.75;11.13;;;;;;;3.85;70.60;101740.28;5041662;28;20084;-45
2023/01/28 08:41:29;;;;;;;21.33;10.77;;;;;;;3.88;70.69;101742.13;5038631;28;20140;-45
2023/01/28 08:43:56;;;;;;;21.05;9.13;;;;;;;3.90;71.18;101750.75;5040770;28;20349;-45
2023/01/28 08:46:22;;;;;;;22.88;8.20;;;;;;;3.90;71.00;101750.75;5044967;28;20120;-45
2023/01/28 08:48:50;;;;;;;23.08;7.53;;;;;;;3.91;71.04;101747.38;5036182;28;20539;-44
2023/01/28 08:51:17;;;;;;;19.40;9.38;;;;;;;3.92;70.80;101755.16;5030386;28;20041;-45
2023/01/28 08:53:43;;;;;;;18.75;8.45;;;;;;;3.94;70.61;101739.84;5044558;28;20041;-45
2023/01/28 08:56:10;;;;;;;19.10;7.20;;;;;;;3.95;71.08;101744.22;5040839;28;20047;-44
2023/01/28 08:58:38;;;;;;;23.00;7.53;;;;;;;3.98;70.32;101754.59;5042319;28;20112;-44
2023/01/28 09:01:06;;;;;;;20.40;9.23;;;;;;;3.99;70.79;101751.25;5041755;28;20275;-45
2023/01/28 09:03:33;;;;;;;18.33;7.10;;;;;;;4.01;71.13;101741.94;5038043;28;20132;-45
2023/01/28 09:06:01;;;;;;;25.20;10.38;;;;;;;4.03;70.68;101737.78;5040911;28;21015;-44
2023/01/28 09:08:27;;;;;;;23.38;7.95;;;;;;;4.05;70.92;101736.16;5037335;28;20589;-45
2023/01/28 09:10:55;;;;;;;27.73;9.85;;;;;;;4.07;70.79;101719.19;5039762;28;20115;-45
2023/01/28 09:13:23;;;;;;;20.77;8.20;;;;;;;4.11;70.53;101721.09;5041434;28;20574;-45
2023/01/28 09:15:50;;;;;;;21.73;7.63;;;;;;;4.13;70.67;101715.16;5034529;28;20071;-46
2023/01/28 09:18:18;;;;;;;21.83;9.05;;;;;;;4.16;70.74;101723.03;5016354;28;20055;-46
2023/01/28 09:20:45;;;;;;;28.48;10.32;;;;;;;4.20;70.55;101719.81;5042761;28;20049;-47
2023/01/28 09:23:12;;;;;;;19.48;8.70;;;;;;;4.24;70.61;101716.59;5022348;28;20042;-44
2023/01/28 09:25:39;;;;;;;15.43;6.20;;;;;;;4.28;70.83;101712.47;5026568;28;20080;-44
2023/01/28 09:28:07;;;;;;;15.82;7.78;;;;;;;4.32;71.10;101715.28;5040604;28;20041;-45
2023/01/28 09:30:34;;;;;;;18.02;7.72;;;;;;;4.35;70.89;101710.31;5016532;28;20056;-48
2023/01/28 09:33:04;;;;;;;16.52;6.32;;;;;;;4.40;70.90;101705.41;5048074;28;20053;-45
2023/01/28 09:35:32;;;;;;;23.60;9.02;;;;;;;4.44;70.66;101709.00;5040490;28;20139;-45
2023/01/28 09:37:59;;;;;;;28.65;10.85;;;;;;;4.48;70.84;101710.91;5037460;28;20171;-45
2023/01/28 09:40:34;;;;;;;35.83;10.80;;;;;;;4.50;69.87;101704.19;5025826;28;20140;-45
2023/01/28 09:43:28;;;;;;;21.67;9.23;;;;;;;4.54;70.80;101708.66;5036986;28;20055;-44
2023/01/28 09:45:57;;;;;;;25.45;10.15;;;;;;;4.60;71.08;101708.94;5021164;28;20147;-45
2023/01/28 09:48:32;;;;;;;20.80;7.57;;;;;;;4.63;71.33;101701.41;5035238;28;20057;-45
2023/01/28 09:51:00;;;;;;;20.48;7.38;;;;;;;4.68;70.83;101704.19;5038267;28;20052;-46
2023/01/28 09:53:31;;;;;;;15.07;6.05;;;;;;;4.75;71.03;101706.25;5033484;28;20050;-45
2023/01/28 09:58:34;;;;;;;12.30;5.35;;;;;;;4.83;70.83;101698.91;5023415;28;20386;-44
2023/01/28 10:01:33;;;;;;;10.85;4.60;;;;;;;4.87;71.05;101690.53;5000640;28;20060;-46
2023/01/28 10:07:09;;;;;;;14.85;6.20;;;;;;;4.96;71.49;101694.38;5046152;28;20391;-46
2023/01/28 10:10:01;;;;;;;18.77;6.25;;;;;;;5.01;71.01;101683.47;5013964;28;20175;-46
2023/01/28 10:12:45;;;;;;;16.50;6.43;;;;;;;5.08;70.82;101694.94;5011693;28;20386;-45
2023/01/28 10:18:09;;;;;;;14.10;5.25;;;;;;;5.22;71.54;101702.38;5053700;28;20888;-45
2023/01/28 10:20:50;;;;;;;11.10;4.68;;;;;;;5.27;71.66;101695.78;5041181;28;20052;-45
2023/01/28 10:23:24;;;;;;;10.50;4.63;;;;;;;5.31;71.19;101697.69;5054712;28;20080;-45
2023/01/28 10:25:54;;;;;;;12.38;4.95;;;;;;;5.35;71.37;101699.59;5057642;28;20059;-46
2023/01/28 10:28:27;;;;;;;11.60;4.72;;;;;;;5.37;71.38;101697.94;5055373;28;20102;-45
2023/01/28 10:30:54;;;;;;;14.75;5.10;;;;;;;5.40;71.42;101692.06;5062838;28;20106;-47
2023/01/28 10:36:03;;;;;;;28.02;9.27;;;;;;;5.51;70.46;101690.00;5067693;28;20387;-45
2023/01/28 10:38:31;;;;;;;27.77;9.77;;;;;;;5.55;70.44;101699.59;5006418;28;20046;-44
2023/01/28 10:41:00;;;;;;;13.13;6.43;;;;;;;5.57;71.55;101697.97;5002639;28;20050;-46
2023/01/28 10:43:34;;;;;;;16.88;6.30;;;;;;;5.59;71.70;101698.94;5001576;28;20038;-44
2023/01/28 10:51:39;;;;;;;10.75;4.70;;;;;;;5.61;71.52;101707.56;5081278;27;20421;-45
2023/01/28 10:54:26;;;;;;;10.10;3.90;;;;;;;5.62;71.03;101711.91;5042263;28;20532;-46
2023/01/28 10:56:58;;;;;;;16.30;4.45;;;;;;;5.68;71.17;101713.00;5040846;28;20572;-45
2023/01/28 10:59:27;;;;;;;13.77;5.45;;;;;;;5.73;72.01;101707.25;5041403;28;20440;-44
2023/01/28 11:01:58;;;;;;;8.60;3.85;;;;;;;5.78;71.61;101710.03;5041509;28;20445;-46
2023/01/28 11:07:19;;;;;;;18.40;5.97;;;;;;;5.83;70.83;101716.25;5064836;27;20397;-47
2023/01/28 11:09:50;;;;;;;9.90;5.38;;;;;;;5.86;71.67;101725.78;5033871;28;20161;-45
2023/01/28 11:12:27;;;;;;;12.07;5.82;;;;;;;5.87;70.66;101715.56;5038367;28;20076;-45
2023/01/28 11:14:56;;;;;;;10.27;5.40;;;;;;;5.85;70.69;101711.16;5045231;28;20052;-48
2023/01/28 11:17:28;;;;;;;8.23;4.13;;;;;;;5.85;72.11;101701.78;5043184;28;20049;-46
2023/01/28 11:19:58;;;;;;;8.50;4.57;;;;;;;5.86;71.91;101703.53;5038570;28;20076;-45
2023/01/28 11:22:35;;;;;;;;;;;;;;;5.79;71.94;101701.50;5039637;28;20049;-45
2023/01/28 11:25:12;;;;;;;5.75;3.65;;;;;;;5.86;72.36;101713.81;5038510;28;19925;-44
2023/01/28 11:27:39;;;;;;;10.20;5.07;;;;;;;5.88;71.72;101712.16;5037261;28;20073;-44
2023/01/28 11:35:54;;;;;;;7.30;2.78;;;;;;;5.77;72.17;101713.38;5056121;28;20429;-46
2023/01/28 11:38:24;;;;;;;9.10;3.20;;;;;;;5.73;71.25;101716.63;5004528;28;20571;-45
2023/01/28 11:40:54;;;;;;;6.28;3.28;;;;;;;5.63;72.15;101721.38;5000331;28;20052;-45
2023/01/28 11:43:24;;;;;;;4.13;1.92;;;;;;;5.59;71.55;101719.50;5001734;28;20082;-45
2023/01/28 11:51:55;;;;;;;12.27;3.78;;;;;;;5.59;72.54;101711.78;5051884;27;20406;-45
2023/01/28 12:00:01;;;;;;;14.55;5.30;;;;;;;5.64;72.93;101715.41;5037166;28;20410;-45
2023/01/28 12:05:35;;;;;;;7.68;2.90;;;;;;;5.74;72.26;101713.28;5028506;28;20420;-44
2023/01/28 12:10:56;;;;;;;9.10;4.90;;;;;;;5.87;72.89;101715.56;5062679;27;20911;-45
2023/01/28 12:13:36;;;;;;;9.35;5.10;;;;;;;5.96;72.87;101711.63;5037506;28;20048;-46
2023/01/28 12:21:50;;;;;;;8.20;3.22;;;;;;;6.07;72.75;101713.00;5055470;27;20395;-46
2023/01/28 12:38:07;;;;;;;12.25;3.85;;;;;;;6.23;73.12;101675.06;5028844;27;20413;-47
2023/01/28 12:45:55;;;;;;;10.57;4.07;;;;;;;6.38;72.60;101664.53;5107412;27;20395;-46
2023/01/28 12:48:31;;;;;;;9.02;3.63;;;;;;;6.40;72.03;101657.72;5060036;28;21293;-46
2023/01/28 12:51:03;;;;;;;9.07;3.75;;;;;;;6.41;72.55;101655.22;5059000;28;20098;-45
2023/01/28 12:56:20;;;;;;;8.32;3.38;;;;;;;6.47;72.53;101645.97;5125951;27;20419;-46
2023/01/28 13:01:39;;;;;;;8.43;4.13;;;;;;;6.51;71.94;101647.84;5098609;27;20409;-45
2023/01/28 13:04:26;;;;;;;8.60;4.00;;;;;;;6.52;71.88;101644.50;5032449;28;20049;-45
2023/01/28 13:07:14;;;;;;;10.82;4.05;;;;;;;6.49;71.98;101634.06;5021487;28;20111;-47
2023/01/28 13:09:51;;;;;;;10.80;4.32;;;;;;;6.52;71.57;101641.91;5018933;28;20054;-45
2023/01/28 13:12:18;;;;;;;;;;;;;;;6.47;71.61;101648.56;5021152;28;20108;-48
2023/01/28 13:14:46;;;;;;;11.57;3.70;;;;;;;6.56;72.59;101634.34;5021921;28;19921;-46
2023/01/28 13:17:33;;;;;;;8.55;3.45;;;;;;;6.57;72.40;101632.66;5020383;28;20568;-45
2023/01/28 13:20:00;;;;;;;8.65;2.95;;;;;;;6.61;71.43;101629.38;5018759;28;20042;-45
2023/01/28 13:25:25;;;;;;;9.45;2.65;;;;;;;6.70;71.92;101621.16;5047408;28;20398;-46
2023/01/28 13:27:55;;;;;;;12.82;4.10;;;;;;;6.78;73.04;101622.31;5004345;28;20049;-46
2023/01/28 13:30:26;;;;;;;8.35;3.83;;;;;;;6.84;72.28;101620.78;5010855;28;20054;-47
2023/01/28 13:33:00;;;;;;;9.05;4.03;;;;;;;6.88;70.90;101623.53;5006434;28;20185;-47
2023/01/28 13:35:37;;;;;;;7.78;3.40;;;;;;;6.88;71.51;101618.41;5009672;28;20049;-48
2023/01/28 13:38:20;;;;;;;9.48;3.63;;;;;;;6.91;71.92;101628.81;5007577;28;20050;-47
2023/01/28 13:40:55;;;;;;;11.13;2.90;;;;;;;6.94;71.51;101628.94;5001550;28;20140;-47
2023/01/28 13:43:27;;;;;;;7.82;2.42;;;;;;;6.99;71.47;101628.25;5016944;28;20053;-45